sensor_id;sensor_type;location;lat;lon;timestamp;pressure;altitude;pressure_sealevel;temperature;humidity
33161;BME280;19522;45.656;11.302;2024-03-22T00:01:45;98788.38;;;9.16;100.00
33161;BME280;19522;45.656;11.302;2024-03-22T00:04:14;98793.78;;;9.24;100.00
33161;BME280;19522;45.656;11.302;2024-03-22T00:06:44;98792.63;;;9.10;100.00
33161;BME280;19522;45.656;11.302;2024-03-22T00:09:10;98783.13;;;9.23;100.00
33161;BME280;19522;45.656;11.302;2024-03-22T00:11:36;98789.72;;;9.28;100.00
33161;BME280;19522;45.656;11.302;2024-03-22T00:14:03;98776.81;;;9.47;100.00
33161;BME280;19522;45.656;11.302;2024-03-22T00:16:29;98772.06;;;9.41;100.00
33161;BME280;19522;45.656;11.302;2024-03-22T00:18:54;98776.31;;;9.35;100.00
33161;BME280;19522;45.656;11.302;2024-03-22T00:21:21;98794.41;;;9.51;100.00
33161;BME280;19522;45.656;11.302;2024-03-22T00:23:47;98739.59;;;9.24;100.00
33161;BME280;19522;45.656;11.302;2024-03-22T00:26:13;98775.97;;;9.38;100.00
33161;BME280;19522;45.656;11.302;2024-03-22T00:28:38;98770.91;;;9.27;100.00
33161;BME280;19522;45.656;11.302;2024-03-22T00:31:04;98791.63;;;9.11;100.00
33161;BME280;19522;45.656;11.302;2024-03-22T00:33:29;98764.19;;;8.81;100.00
33161;BME280;19522;45.656;11.302;2024-03-22T00:35:55;98796.00;;;8.87;100.00
33161;BME280;19522;45.656;11.302;2024-03-22T00:38:21;98800.22;;;8.73;100.00
33161;BME280;19522;45.656;11.302;2024-03-22T00:40:46;98780.84;;;8.19;100.00
33161;BME280;19522;45.656;11.302;2024-03-22T00:43:12;98788.16;;;8.43;100.00
33161;BME280;19522;45.656;11.302;2024-03-22T00:45:37;98803.03;;;8.39;100.00
33161;BME280;19522;45.656;11.302;2024-03-22T00:48:03;98808.03;;;8.68;100.00
33161;BME280;19522;45.656;11.302;2024-03-22T00:50:29;98809.53;;;8.71;100.00
33161;BME280;19522;45.656;11.302;2024-03-22T00:52:54;98805.97;;;8.70;100.00
33161;BME280;19522;45.656;11.302;2024-03-22T00:55:23;98803.44;;;8.69;100.00
33161;BME280;19522;45.656;11.302;2024-03-22T00:57:49;98809.56;;;8.79;100.00
33161;BME280;19522;45.656;11.302;2024-03-22T01:00:15;98795.00;;;8.72;100.00
33161;BME280;19522;45.656;11.302;2024-03-22T01:02:41;98815.16;;;8.94;100.00
33161;BME280;19522;45.656;11.302;2024-03-22T01:05:07;98782.28;;;8.81;100.00
33161;BME280;19522;45.656;11.302;2024-03-22T01:07:33;98782.28;;;8.72;100.00
33161;BME280;19522;45.656;11.302;2024-03-22T01:09:58;98809.03;;;8.84;100.00
33161;BME280;19522;45.656;11.302;2024-03-22T01:12:24;98812.75;;;8.66;100.00
33161;BME280;19522;45.656;11.302;2024-03-22T01:14:49;98816.66;;;8.64;100.00
33161;BME280;19522;45.656;11.302;2024-03-22T01:17:15;98782.88;;;8.33;100.00
33161;BME280;19522;45.656;11.302;2024-03-22T01:19:41;98778.94;;;8.11;100.00
33161;BME280;19522;45.656;11.302;2024-03-22T01:22:06;98807.69;;;8.12;100.00
33161;BME280;19522;45.656;11.302;2024-03-22T01:24:32;98814.28;;;8.09;100.00
33161;BME280;19522;45.656;11.302;2024-03-22T01:26:57;98797.03;;;8.02;100.00
33161;BME280;19522;45.656;11.302;2024-03-22T01:29:23;98797.13;;;7.92;100.00
33161;BME280;19522;45.656;11.302;2024-03-22T01:31:49;98807.47;;;7.97;100.00
33161;BME280;19522;45.656;11.302;2024-03-22T01:34:14;98781.53;;;7.43;100.00
33161;BME280;19522;45.656;11.302;2024-03-22T01:36:40;98768.91;;;7.52;100.00
33161;BME280;19522;45.656;11.302;2024-03-22T01:39:05;98799.53;;;8.04;100.00
33161;BME280;19522;45.656;11.302;2024-03-22T01:41:31;98818.88;;;8.17;100.00
33161;BME280;19522;45.656;11.302;2024-03-22T01:43:58;98786.81;;;7.88;100.00
33161;BME280;19522;45.656;11.302;2024-03-22T01:46:23;98820.63;;;7.92;100.00
33161;BME280;19522;45.656;11.302;2024-03-22T01:48:49;98783.56;;;7.76;100.00
33161;BME280;19522;45.656;11.302;2024-03-22T01:51:15;98814.91;;;8.03;100.00
33161;BME280;19522;45.656;11.302;2024-03-22T01:53:41;98798.56;;;8.13;100.00
33161;BME280;19522;45.656;11.302;2024-03-22T01:56:07;98808.41;;;8.22;100.00
33161;BME280;19522;45.656;11.302;2024-03-22T01:58:33;98816.19;;;8.17;100.00
33161;BME280;19522;45.656;11.302;2024-03-22T02:00:58;98814.47;;;8.16;100.00
33161;BME280;19522;45.656;11.302;2024-03-22T02:03:24;98798.13;;;7.91;100.00
33161;BME280;19522;45.656;11.302;2024-03-22T02:05:50;98815.00;;;7.77;100.00
33161;BME280;19522;45.656;11.302;2024-03-22T02:08:15;98816.78;;;7.68;100.00
33161;BME280;19522;45.656;11.302;2024-03-22T02:10:41;98788.19;;;7.57;100.00
33161;BME280;19522;45.656;11.302;2024-03-22T02:13:06;98807.78;;;7.94;100.00
33161;BME280;19522;45.656;11.302;2024-03-22T02:15:32;98812.66;;;7.90;100.00
33161;BME280;19522;45.656;11.302;2024-03-22T02:17:58;98802.53;;;7.92;100.00
33161;BME280;19522;45.656;11.302;2024-03-22T02:20:23;98808.13;;;7.91;100.00
33161;BME280;19522;45.656;11.302;2024-03-22T02:22:49;98796.16;;;7.67;100.00
33161;BME280;19522;45.656;11.302;2024-03-22T02:25:15;98794.53;;;7.40;100.00
33161;BME280;19522;45.656;11.302;2024-03-22T02:27:41;98806.78;;;7.60;100.00
33161;BME280;19522;45.656;11.302;2024-03-22T02:30:07;98811.88;;;7.63;100.00
33161;BME280;19522;45.656;11.302;2024-03-22T02:32:33;98815.69;;;7.53;100.00
33161;BME280;19522;45.656;11.302;2024-03-22T02:34:58;98810.56;;;7.41;100.00
33161;BME280;19522;45.656;11.302;2024-03-22T02:37:24;98821.53;;;7.40;100.00
33161;BME280;19522;45.656;11.302;2024-03-22T02:39:50;98778.56;;;7.02;100.00
33161;BME280;19522;45.656;11.302;2024-03-22T02:42:15;98807.56;;;7.44;100.00
33161;BME280;19522;45.656;11.302;2024-03-22T02:44:41;98812.31;;;7.51;100.00
33161;BME280;19522;45.656;11.302;2024-03-22T02:47:10;98810.91;;;7.46;100.00
33161;BME280;19522;45.656;11.302;2024-03-22T02:49:37;98791.16;;;7.46;100.00
33161;BME280;19522;45.656;11.302;2024-03-22T02:52:03;98809.97;;;7.56;100.00
33161;BME280;19522;45.656;11.302;2024-03-22T02:54:28;98804.88;;;7.79;100.00
33161;BME280;19522;45.656;11.302;2024-03-22T02:56:54;98810.66;;;7.58;100.00
33161;BME280;19522;45.656;11.302;2024-03-22T02:59:19;98822.81;;;7.54;100.00
33161;BME280;19522;45.656;11.302;2024-03-22T03:01:45;98789.47;;;7.45;100.00
33161;BME280;19522;45.656;11.302;2024-03-22T03:04:10;98785.06;;;7.17;100.00
33161;BME280;19522;45.656;11.302;2024-03-22T03:06:36;98814.91;;;7.34;100.00
33161;BME280;19522;45.656;11.302;2024-03-22T03:09:01;98774.25;;;7.17;100.00
33161;BME280;19522;45.656;11.302;2024-03-22T03:11:27;98820.31;;;7.34;100.00
33161;BME280;19522;45.656;11.302;2024-03-22T03:13:52;98809.88;;;7.39;100.00
33161;BME280;19522;45.656;11.302;2024-03-22T03:16:18;98787.91;;;7.34;100.00
33161;BME280;19522;45.656;11.302;2024-03-22T03:18:43;98804.63;;;7.64;100.00
33161;BME280;19522;45.656;11.302;2024-03-22T03:21:09;98817.31;;;7.72;100.00
33161;BME280;19522;45.656;11.302;2024-03-22T03:23:34;98805.16;;;7.68;100.00
33161;BME280;19522;45.656;11.302;2024-03-22T03:26:00;98816.47;;;7.71;100.00
33161;BME280;19522;45.656;11.302;2024-03-22T03:28:25;98805.66;;;7.71;100.00
33161;BME280;19522;45.656;11.302;2024-03-22T03:30:52;98804.25;;;7.59;100.00
33161;BME280;19522;45.656;11.302;2024-03-22T03:33:17;98814.00;;;7.52;100.00
33161;BME280;19522;45.656;11.302;2024-03-22T03:35:46;98762.97;;;7.22;100.00
33161;BME280;19522;45.656;11.302;2024-03-22T03:40:47;98825.56;;;7.36;100.00
33161;BME280;19522;45.656;11.302;2024-03-22T03:43:13;98835.59;;;7.25;100.00
33161;BME280;19522;45.656;11.302;2024-03-22T03:45:38;98770.03;;;6.70;100.00
33161;BME280;19522;45.656;11.302;2024-03-22T03:48:04;98842.25;;;7.13;100.00
33161;BME280;19522;45.656;11.302;2024-03-22T03:50:30;98811.66;;;7.04;100.00
33161;BME280;19522;45.656;11.302;2024-03-22T03:52:55;98832.59;;;7.28;100.00
33161;BME280;19522;45.656;11.302;2024-03-22T03:55:22;98833.00;;;7.42;100.00
33161;BME280;19522;45.656;11.302;2024-03-22T03:57:50;98802.31;;;7.16;100.00
33161;BME280;19522;45.656;11.302;2024-03-22T04:00:15;98837.09;;;7.20;100.00
33161;BME280;19522;45.656;11.302;2024-03-22T04:02:41;98835.84;;;7.14;100.00
33161;BME280;19522;45.656;11.302;2024-03-22T04:05:06;98829.44;;;7.15;100.00
33161;BME280;19522;45.656;11.302;2024-03-22T04:07:32;98837.78;;;7.22;100.00
33161;BME280;19522;45.656;11.302;2024-03-22T04:09:58;98838.97;;;7.01;100.00
33161;BME280;19522;45.656;11.302;2024-03-22T04:12:26;98828.84;;;7.03;100.00
33161;BME280;19522;45.656;11.302;2024-03-22T04:14:52;98802.84;;;7.02;100.00
33161;BME280;19522;45.656;11.302;2024-03-22T04:17:17;98829.38;;;7.07;100.00
33161;BME280;19522;45.656;11.302;2024-03-22T04:19:43;98832.78;;;7.09;100.00
33161;BME280;19522;45.656;11.302;2024-03-22T04:22:08;98828.00;;;7.02;100.00
33161;BME280;19522;45.656;11.302;2024-03-22T04:24:34;98829.88;;;6.84;100.00
33161;BME280;19522;45.656;11.302;2024-03-22T04:26:59;98779.06;;;6.43;100.00
33161;BME280;19522;45.656;11.302;2024-03-22T04:29:25;98823.22;;;6.78;100.00
33161;BME280;19522;45.656;11.302;2024-03-22T04:31:50;98828.72;;;6.86;100.00
33161;BME280;19522;45.656;11.302;2024-03-22T04:34:16;98824.81;;;7.07;100.00
33161;BME280;19522;45.656;11.302;2024-03-22T04:36:41;98826.97;;;7.22;100.00
33161;BME280;19522;45.656;11.302;2024-03-22T04:39:07;98826.34;;;7.28;100.00
33161;BME280;19522;45.656;11.302;2024-03-22T04:41:35;98799.16;;;7.03;100.00
33161;BME280;19522;45.656;11.302;2024-03-22T04:44:00;98832.47;;;7.38;100.00
33161;BME280;19522;45.656;11.302;2024-03-22T04:46:26;98832.44;;;7.30;100.00
33161;BME280;19522;45.656;11.302;2024-03-22T04:48:52;98767.63;;;6.85;100.00
33161;BME280;19522;45.656;11.302;2024-03-22T04:51:17;98816.72;;;7.07;100.00
33161;BME280;19522;45.656;11.302;2024-03-22T04:53:43;98801.47;;;6.98;100.00
33161;BME280;19522;45.656;11.302;2024-03-22T04:56:09;98841.28;;;6.96;100.00
33161;BME280;19522;45.656;11.302;2024-03-22T04:58:35;98825.16;;;6.86;100.00
33161;BME280;19522;45.656;11.302;2024-03-22T05:01:00;98833.97;;;7.06;100.00
33161;BME280;19522;45.656;11.302;2024-03-22T05:03:26;98837.03;;;7.11;100.00
33161;BME280;19522;45.656;11.302;2024-03-22T05:05:51;98833.69;;;7.17;100.00
33161;BME280;19522;45.656;11.302;2024-03-22T05:08:17;98835.31;;;7.28;100.00
33161;BME280;19522;45.656;11.302;2024-03-22T05:10:43;98802.28;;;6.90;100.00
33161;BME280;19522;45.656;11.302;2024-03-22T05:13:08;98835.63;;;7.07;100.00
33161;BME280;19522;45.656;11.302;2024-03-22T05:15:37;98845.59;;;7.07;100.00
33161;BME280;19522;45.656;11.302;2024-03-22T05:18:02;98839.19;;;7.08;100.00
33161;BME280;19522;45.656;11.302;2024-03-22T05:20:28;98813.38;;;6.69;100.00
33161;BME280;19522;45.656;11.302;2024-03-22T05:22:54;98841.06;;;6.71;100.00
33161;BME280;19522;45.656;11.302;2024-03-22T05:25:20;98813.97;;;6.45;100.00
33161;BME280;19522;45.656;11.302;2024-03-22T05:27:46;98834.66;;;6.54;100.00
33161;BME280;19522;45.656;11.302;2024-03-22T05:30:12;98846.94;;;6.84;100.00
33161;BME280;19522;45.656;11.302;2024-03-22T05:32:44;98827.72;;;6.88;100.00
33161;BME280;19522;45.656;11.302;2024-03-22T05:35:10;98839.84;;;7.01;100.00
33161;BME280;19522;45.656;11.302;2024-03-22T05:37:35;98825.56;;;6.91;100.00
33161;BME280;19522;45.656;11.302;2024-03-22T05:40:02;98842.72;;;7.08;100.00
33161;BME280;19522;45.656;11.302;2024-03-22T05:42:29;98831.31;;;7.14;100.00
33161;BME280;19522;45.656;11.302;2024-03-22T05:44:55;98844.19;;;7.21;100.00
33161;BME280;19522;45.656;11.302;2024-03-22T05:47:20;98844.03;;;7.22;100.00
33161;BME280;19522;45.656;11.302;2024-03-22T05:49:46;98777.75;;;6.83;100.00
33161;BME280;19522;45.656;11.302;2024-03-22T05:52:12;98846.59;;;7.24;100.00
33161;BME280;19522;45.656;11.302;2024-03-22T05:54:37;98848.81;;;7.28;100.00
33161;BME280;19522;45.656;11.302;2024-03-22T05:57:03;98862.63;;;7.25;100.00
33161;BME280;19522;45.656;11.302;2024-03-22T05:59:30;98860.09;;;7.24;100.00
33161;BME280;19522;45.656;11.302;2024-03-22T06:01:56;98856.06;;;7.28;100.00
33161;BME280;19522;45.656;11.302;2024-03-22T06:04:22;98850.34;;;7.31;100.00
33161;BME280;19522;45.656;11.302;2024-03-22T06:06:48;98850.22;;;6.96;100.00
33161;BME280;19522;45.656;11.302;2024-03-22T06:09:15;98851.56;;;6.92;100.00
33161;BME280;19522;45.656;11.302;2024-03-22T06:11:51;98822.22;;;6.79;100.00
33161;BME280;19522;45.656;11.302;2024-03-22T06:14:17;98838.25;;;6.99;100.00
33161;BME280;19522;45.656;11.302;2024-03-22T06:16:43;98825.63;;;6.99;100.00
33161;BME280;19522;45.656;11.302;2024-03-22T06:19:09;98850.28;;;7.23;100.00
33161;BME280;19522;45.656;11.302;2024-03-22T06:21:34;98853.97;;;7.40;100.00
33161;BME280;19522;45.656;11.302;2024-03-22T06:24:00;98856.19;;;7.44;100.00
33161;BME280;19522;45.656;11.302;2024-03-22T06:26:28;98856.94;;;7.55;100.00
33161;BME280;19522;45.656;11.302;2024-03-22T06:28:54;98851.59;;;7.63;100.00
33161;BME280;19522;45.656;11.302;2024-03-22T06:31:22;98858.78;;;7.54;100.00
33161;BME280;19522;45.656;11.302;2024-03-22T06:33:47;98853.69;;;7.51;100.00
33161;BME280;19522;45.656;11.302;2024-03-22T06:36:13;98846.25;;;7.53;100.00
33161;BME280;19522;45.656;11.302;2024-03-22T06:38:38;98840.78;;;7.63;100.00
33161;BME280;19522;45.656;11.302;2024-03-22T06:41:04;98818.19;;;7.72;100.00
33161;BME280;19522;45.656;11.302;2024-03-22T06:43:29;98815.13;;;7.75;100.00
33161;BME280;19522;45.656;11.302;2024-03-22T06:45:55;98836.34;;;7.88;100.00
33161;BME280;19522;45.656;11.302;2024-03-22T06:48:21;98814.84;;;7.87;100.00
33161;BME280;19522;45.656;11.302;2024-03-22T06:50:48;98833.22;;;8.09;100.00
33161;BME280;19522;45.656;11.302;2024-03-22T06:53:14;98803.09;;;8.04;100.00
33161;BME280;19522;45.656;11.302;2024-03-22T06:55:39;98813.13;;;8.20;100.00
33161;BME280;19522;45.656;11.302;2024-03-22T06:58:05;98822.66;;;8.41;100.00
33161;BME280;19522;45.656;11.302;2024-03-22T07:00:30;98829.25;;;8.47;100.00
33161;BME280;19522;45.656;11.302;2024-03-22T07:02:56;98824.78;;;8.64;100.00
33161;BME280;19522;45.656;11.302;2024-03-22T07:05:22;98826.13;;;8.76;100.00
33161;BME280;19522;45.656;11.302;2024-03-22T07:07:48;98811.25;;;8.97;100.00
33161;BME280;19522;45.656;11.302;2024-03-22T07:10:15;98822.94;;;9.06;100.00
33161;BME280;19522;45.656;11.302;2024-03-22T07:12:41;98823.94;;;9.21;100.00
33161;BME280;19522;45.656;11.302;2024-03-22T07:15:07;98823.78;;;9.31;100.00
33161;BME280;19522;45.656;11.302;2024-03-22T07:17:32;98823.94;;;9.46;100.00
33161;BME280;19522;45.656;11.302;2024-03-22T07:19:58;98802.25;;;9.46;100.00
33161;BME280;19522;45.656;11.302;2024-03-22T07:22:23;98798.47;;;9.63;100.00
33161;BME280;19522;45.656;11.302;2024-03-22T07:24:49;98814.34;;;9.83;100.00
33161;BME280;19522;45.656;11.302;2024-03-22T07:27:16;98812.41;;;10.00;98.91
33161;BME280;19522;45.656;11.302;2024-03-22T07:29:44;98809.78;;;10.15;97.68
33161;BME280;19522;45.656;11.302;2024-03-22T07:32:10;98804.44;;;10.30;95.54
33161;BME280;19522;45.656;11.302;2024-03-22T07:34:35;98810.47;;;10.49;93.66
33161;BME280;19522;45.656;11.302;2024-03-22T07:37:01;98788.88;;;10.55;94.14
33161;BME280;19522;45.656;11.302;2024-03-22T07:39:27;98805.13;;;10.87;94.89
33161;BME280;19522;45.656;11.302;2024-03-22T07:41:52;98807.63;;;11.35;99.12
33161;BME280;19522;45.656;11.302;2024-03-22T07:44:18;98801.50;;;12.01;95.75
33161;BME280;19522;45.656;11.302;2024-03-22T07:46:45;98801.97;;;12.78;91.18
33161;BME280;19522;45.656;11.302;2024-03-22T07:49:11;98800.81;;;13.59;83.60
33161;BME280;19522;45.656;11.302;2024-03-22T07:51:37;98793.56;;;14.15;78.12
33161;BME280;19522;45.656;11.302;2024-03-22T07:54:03;98806.19;;;14.85;74.33
33161;BME280;19522;45.656;11.302;2024-03-22T07:56:28;98802.06;;;15.29;70.34
33161;BME280;19522;45.656;11.302;2024-03-22T07:58:54;98803.03;;;15.75;68.25
33161;BME280;19522;45.656;11.302;2024-03-22T08:01:19;98792.84;;;16.16;64.09
33161;BME280;19522;45.656;11.302;2024-03-22T08:03:45;98801.13;;;16.55;63.06
33161;BME280;19522;45.656;11.302;2024-03-22T08:06:10;98800.88;;;17.02;62.54
33161;BME280;19522;45.656;11.302;2024-03-22T08:08:36;98800.53;;;17.42;61.31
33161;BME280;19522;45.656;11.302;2024-03-22T08:11:01;98796.81;;;17.80;57.99
33161;BME280;19522;45.656;11.302;2024-03-22T08:13:27;98789.91;;;17.96;56.35
33161;BME280;19522;45.656;11.302;2024-03-22T08:15:52;98766.41;;;18.19;54.78
33161;BME280;19522;45.656;11.302;2024-03-22T08:18:19;98783.91;;;18.55;52.49
33161;BME280;19522;45.656;11.302;2024-03-22T08:20:44;98732.19;;;18.15;50.66
33161;BME280;19522;45.656;11.302;2024-03-22T08:23:10;98783.28;;;18.53;51.69
33161;BME280;19522;45.656;11.302;2024-03-22T08:25:35;98765.66;;;18.73;52.53
33161;BME280;19522;45.656;11.302;2024-03-22T08:28:02;98783.88;;;19.04;49.39
33161;BME280;19522;45.656;11.302;2024-03-22T08:30:27;98763.78;;;19.15;48.79
33161;BME280;19522;45.656;11.302;2024-03-22T08:32:53;98745.00;;;19.12;47.52
33161;BME280;19522;45.656;11.302;2024-03-22T08:35:19;98779.56;;;18.96;49.09
33161;BME280;19522;45.656;11.302;2024-03-22T08:37:47;98782.56;;;19.07;50.64
33161;BME280;19522;45.656;11.302;2024-03-22T08:40:13;98773.25;;;19.31;50.05
33161;BME280;19522;45.656;11.302;2024-03-22T08:42:39;98777.13;;;19.54;50.32
33161;BME280;19522;45.656;11.302;2024-03-22T08:45:05;98766.72;;;19.56;49.92
33161;BME280;19522;45.656;11.302;2024-03-22T08:47:31;98770.50;;;19.43;47.90
33161;BME280;19522;45.656;11.302;2024-03-22T08:49:59;98766.34;;;19.65;48.38
33161;BME280;19522;45.656;11.302;2024-03-22T08:52:24;98768.28;;;19.88;48.25
33161;BME280;19522;45.656;11.302;2024-03-22T08:54:51;98753.84;;;19.98;48.36
33161;BME280;19522;45.656;11.302;2024-03-22T08:57:17;98758.91;;;20.01;46.86
33161;BME280;19522;45.656;11.302;2024-03-22T08:59:45;98762.84;;;20.05;46.60
33161;BME280;19522;45.656;11.302;2024-03-22T09:02:11;98760.69;;;19.95;46.18
33161;BME280;19522;45.656;11.302;2024-03-22T09:04:38;98761.06;;;19.75;46.81
33161;BME280;19522;45.656;11.302;2024-03-22T09:07:03;98766.47;;;19.93;46.61
33161;BME280;19522;45.656;11.302;2024-03-22T09:09:29;98759.38;;;19.98;45.72
33161;BME280;19522;45.656;11.302;2024-03-22T09:11:55;98755.44;;;19.93;45.36
33161;BME280;19522;45.656;11.302;2024-03-22T09:14:20;98766.69;;;19.92;44.01
33161;BME280;19522;45.656;11.302;2024-03-22T09:16:46;98735.53;;;19.68;45.52
33161;BME280;19522;45.656;11.302;2024-03-22T09:19:11;98763.22;;;19.73;45.57
33161;BME280;19522;45.656;11.302;2024-03-22T09:21:37;98744.66;;;19.33;44.12
33161;BME280;19522;45.656;11.302;2024-03-22T09:24:02;98760.66;;;19.00;45.93
33161;BME280;19522;45.656;11.302;2024-03-22T09:26:32;98760.31;;;19.20;46.31
33161;BME280;19522;45.656;11.302;2024-03-22T09:28:58;98755.91;;;19.43;46.83
33161;BME280;19522;45.656;11.302;2024-03-22T09:31:23;98753.97;;;19.43;44.83
33161;BME280;19522;45.656;11.302;2024-03-22T09:33:48;98736.16;;;19.22;44.29
33161;BME280;19522;45.656;11.302;2024-03-22T09:36:14;98756.03;;;19.48;46.36
33161;BME280;19522;45.656;11.302;2024-03-22T09:38:39;98752.34;;;19.42;45.83
33161;BME280;19522;45.656;11.302;2024-03-22T09:41:08;98752.69;;;19.58;45.60
33161;BME280;19522;45.656;11.302;2024-03-22T09:43:34;98758.56;;;19.38;44.64
33161;BME280;19522;45.656;11.302;2024-03-22T09:46:01;98725.13;;;19.22;45.48
33161;BME280;19522;45.656;11.302;2024-03-22T09:48:28;98751.72;;;19.40;45.38
33161;BME280;19522;45.656;11.302;2024-03-22T09:51:00;98727.47;;;18.95;45.57
33161;BME280;19522;45.656;11.302;2024-03-22T09:53:27;98742.88;;;19.26;45.36
33161;BME280;19522;45.656;11.302;2024-03-22T09:55:53;98740.22;;;19.31;46.44
33161;BME280;19522;45.656;11.302;2024-03-22T09:58:23;98710.53;;;19.22;45.56
33161;BME280;19522;45.656;11.302;2024-03-22T10:00:48;98728.50;;;19.12;45.57
33161;BME280;19522;45.656;11.302;2024-03-22T10:03:14;98736.28;;;19.39;46.36
33161;BME280;19522;45.656;11.302;2024-03-22T10:05:40;98731.59;;;19.40;45.67
33161;BME280;19522;45.656;11.302;2024-03-22T10:08:06;98727.19;;;19.51;45.34
33161;BME280;19522;45.656;11.302;2024-03-22T10:10:32;98723.47;;;19.45;45.23
33161;BME280;19522;45.656;11.302;2024-03-22T10:13:01;98724.19;;;19.52;46.50
33161;BME280;19522;45.656;11.302;2024-03-22T10:15:27;98716.34;;;19.97;46.22
33161;BME280;19522;45.656;11.302;2024-03-22T10:17:52;98692.91;;;19.58;44.68
33161;BME280;19522;45.656;11.302;2024-03-22T10:20:21;98688.84;;;19.49;43.38
33161;BME280;19522;45.656;11.302;2024-03-22T10:22:57;98682.41;;;19.55;43.64
33161;BME280;19522;45.656;11.302;2024-03-22T10:25:26;98702.00;;;19.71;42.67
33161;BME280;19522;45.656;11.302;2024-03-22T10:27:56;98693.41;;;19.67;42.55
33161;BME280;19522;45.656;11.302;2024-03-22T10:30:25;98692.44;;;19.85;42.36
33161;BME280;19522;45.656;11.302;2024-03-22T10:32:51;98686.31;;;19.83;42.19
33161;BME280;19522;45.656;11.302;2024-03-22T10:35:17;98693.13;;;19.81;42.55
33161;BME280;19522;45.656;11.302;2024-03-22T10:37:43;98694.09;;;19.98;43.84
33161;BME280;19522;45.656;11.302;2024-03-22T10:40:09;98669.50;;;19.97;42.61
33161;BME280;19522;45.656;11.302;2024-03-22T10:42:36;98664.66;;;19.63;41.60
33161;BME280;19522;45.656;11.302;2024-03-22T10:45:03;98690.72;;;19.84;42.37
33161;BME280;19522;45.656;11.302;2024-03-22T10:47:31;98687.84;;;19.79;42.15
33161;BME280;19522;45.656;11.302;2024-03-22T10:53:02;98681.25;;;19.80;40.65
33161;BME280;19522;45.656;11.302;2024-03-22T10:55:32;98666.19;;;19.95;40.03
33161;BME280;19522;45.656;11.302;2024-03-22T10:57:58;98658.13;;;20.05;40.88
33161;BME280;19522;45.656;11.302;2024-03-22T11:00:31;98669.16;;;20.34;39.80
33161;BME280;19522;45.656;11.302;2024-03-22T11:02:57;98675.38;;;20.58;41.54
33161;BME280;19522;45.656;11.302;2024-03-22T11:05:23;98672.69;;;20.63;39.36
33161;BME280;19522;45.656;11.302;2024-03-22T11:08:01;98677.66;;;20.32;39.58
33161;BME280;19522;45.656;11.302;2024-03-22T11:10:29;98624.16;;;20.33;39.10
33161;BME280;19522;45.656;11.302;2024-03-22T11:12:55;98650.47;;;20.70;38.81
33161;BME280;19522;45.656;11.302;2024-03-22T11:15:22;98662.47;;;20.76;40.00
33161;BME280;19522;45.656;11.302;2024-03-22T11:17:47;98658.03;;;20.46;38.48
33161;BME280;19522;45.656;11.302;2024-03-22T11:20:15;98650.72;;;20.22;37.67
33161;BME280;19522;45.656;11.302;2024-03-22T11:22:41;98632.16;;;20.18;38.87
33161;BME280;19522;45.656;11.302;2024-03-22T11:25:06;98582.22;;;20.14;39.01
33161;BME280;19522;45.656;11.302;2024-03-22T11:27:32;98607.88;;;20.49;37.95
33161;BME280;19522;45.656;11.302;2024-03-22T11:29:58;98636.78;;;20.75;37.95
33161;BME280;19522;45.656;11.302;2024-03-22T11:32:23;98636.66;;;20.53;38.17
33161;BME280;19522;45.656;11.302;2024-03-22T11:34:49;98600.63;;;20.43;39.01
33161;BME280;19522;45.656;11.302;2024-03-22T11:37:15;98634.81;;;20.59;39.09
33161;BME280;19522;45.656;11.302;2024-03-22T11:39:41;98623.38;;;20.67;38.48
33161;BME280;19522;45.656;11.302;2024-03-22T11:42:08;98614.16;;;20.61;37.75
33161;BME280;19522;45.656;11.302;2024-03-22T11:44:36;98612.66;;;20.53;38.82
33161;BME280;19522;45.656;11.302;2024-03-22T11:47:03;98609.81;;;20.48;39.10
33161;BME280;19522;45.656;11.302;2024-03-22T11:49:29;98609.66;;;20.55;38.71
33161;BME280;19522;45.656;11.302;2024-03-22T11:51:56;98599.81;;;20.76;38.94
33161;BME280;19522;45.656;11.302;2024-03-22T11:54:22;98580.59;;;20.81;38.64
33161;BME280;19522;45.656;11.302;2024-03-22T11:56:49;98593.53;;;20.98;38.38
33161;BME280;19522;45.656;11.302;2024-03-22T11:59:14;98575.88;;;20.99;37.84
33161;BME280;19522;45.656;11.302;2024-03-22T12:01:43;98577.25;;;20.96;38.24
33161;BME280;19522;45.656;11.302;2024-03-22T12:04:09;98579.72;;;20.98;38.52
33161;BME280;19522;45.656;11.302;2024-03-22T12:06:42;98569.38;;;20.88;38.41
33161;BME280;19522;45.656;11.302;2024-03-22T12:09:07;98572.13;;;20.88;37.32
33161;BME280;19522;45.656;11.302;2024-03-22T12:11:35;98570.13;;;20.83;37.95
33161;BME280;19522;45.656;11.302;2024-03-22T12:14:00;98552.47;;;20.84;37.60
33161;BME280;19522;45.656;11.302;2024-03-22T12:16:26;98543.97;;;20.86;38.47
33161;BME280;19522;45.656;11.302;2024-03-22T12:18:51;98554.97;;;20.69;37.92
33161;BME280;19522;45.656;11.302;2024-03-22T12:21:22;98564.13;;;20.52;38.66
33161;BME280;19522;45.656;11.302;2024-03-22T12:23:48;98564.84;;;20.99;38.79
33161;BME280;19522;45.656;11.302;2024-03-22T12:26:14;98549.03;;;21.33;38.75
33161;BME280;19522;45.656;11.302;2024-03-22T12:28:39;98553.91;;;21.71;37.44
33161;BME280;19522;45.656;11.302;2024-03-22T12:31:05;98532.59;;;21.44;37.64
33161;BME280;19522;45.656;11.302;2024-03-22T12:33:30;98545.22;;;21.84;37.40
33161;BME280;19522;45.656;11.302;2024-03-22T12:35:56;98534.56;;;21.71;36.72
33161;BME280;19522;45.656;11.302;2024-03-22T12:38:25;98545.47;;;21.83;37.95
33161;BME280;19522;45.656;11.302;2024-03-22T12:40:50;98527.66;;;21.68;36.63
33161;BME280;19522;45.656;11.302;2024-03-22T12:43:16;98538.19;;;21.99;37.34
33161;BME280;19522;45.656;11.302;2024-03-22T12:45:42;98530.72;;;21.72;37.11
33161;BME280;19522;45.656;11.302;2024-03-22T12:48:08;98530.78;;;21.55;36.78
33161;BME280;19522;45.656;11.302;2024-03-22T12:50:34;98528.06;;;21.82;38.45